sensor_id;sensor_type;location;lat;lon;timestamp;P1;durP1;ratioP1;P2;durP2;ratioP2
18228;SDS011;9239;50.932;3.142;2024-03-17T00:01:00;8.13;;;7.43;;
18228;SDS011;9239;50.932;3.142;2024-03-17T00:03:27;9.13;;;7.07;;
18228;SDS011;9239;50.932;3.142;2024-03-17T00:05:58;8.40;;;7.60;;
18228;SDS011;9239;50.932;3.142;2024-03-17T00:08:26;9.50;;;7.63;;
18228;SDS011;9239;50.932;3.142;2024-03-17T00:10:53;8.90;;;7.40;;
18228;SDS011;9239;50.932;3.142;2024-03-17T00:13:20;8.77;;;7.77;;
18228;SDS011;9239;50.932;3.142;2024-03-17T00:15:47;9.93;;;7.20;;
18228;SDS011;9239;50.932;3.142;2024-03-17T00:18:13;10.70;;;7.03;;
18228;SDS011;9239;50.932;3.142;2024-03-17T00:20:40;8.77;;;7.87;;
18228;SDS011;9239;50.932;3.142;2024-03-17T00:23:08;7.90;;;7.17;;
18228;SDS011;9239;50.932;3.142;2024-03-17T00:25:37;9.60;;;7.90;;
18228;SDS011;9239;50.932;3.142;2024-03-17T00:28:03;8.37;;;7.57;;
18228;SDS011;9239;50.932;3.142;2024-03-17T00:30:31;10.07;;;8.13;;
18228;SDS011;9239;50.932;3.142;2024-03-17T00:32:57;9.43;;;8.17;;
18228;SDS011;9239;50.932;3.142;2024-03-17T00:35:24;8.23;;;7.30;;
18228;SDS011;9239;50.932;3.142;2024-03-17T00:37:51;11.23;;;7.63;;
18228;SDS011;9239;50.932;3.142;2024-03-17T00:40:20;10.77;;;7.80;;
18228;SDS011;9239;50.932;3.142;2024-03-17T00:42:46;8.77;;;7.43;;
18228;SDS011;9239;50.932;3.142;2024-03-17T00:45:14;8.30;;;7.50;;
18228;SDS011;9239;50.932;3.142;2024-03-17T00:47:40;10.67;;;7.77;;
18228;SDS011;9239;50.932;3.142;2024-03-17T00:50:08;10.27;;;7.80;;
18228;SDS011;9239;50.932;3.142;2024-03-17T00:52:36;8.60;;;7.63;;
18228;SDS011;9239;50.932;3.142;2024-03-17T00:55:04;8.77;;;7.97;;
18228;SDS011;9239;50.932;3.142;2024-03-17T00:57:32;9.33;;;7.90;;
18228;SDS011;9239;50.932;3.142;2024-03-17T00:59:59;8.77;;;7.77;;
18228;SDS011;9239;50.932;3.142;2024-03-17T01:02:25;8.60;;;7.80;;
18228;SDS011;9239;50.932;3.142;2024-03-17T01:04:52;8.27;;;7.47;;
18228;SDS011;9239;50.932;3.142;2024-03-17T01:07:18;8.47;;;7.47;;
18228;SDS011;9239;50.932;3.142;2024-03-17T01:09:46;8.70;;;7.80;;
18228;SDS011;9239;50.932;3.142;2024-03-17T01:12:13;7.83;;;7.13;;
18228;SDS011;9239;50.932;3.142;2024-03-17T01:14:41;8.43;;;7.60;;
18228;SDS011;9239;50.932;3.142;2024-03-17T01:17:07;8.07;;;7.07;;
18228;SDS011;9239;50.932;3.142;2024-03-17T01:19:34;8.70;;;7.77;;
18228;SDS011;9239;50.932;3.142;2024-03-17T01:22:00;8.63;;;7.83;;
18228;SDS011;9239;50.932;3.142;2024-03-17T01:24:28;10.77;;;7.93;;
18228;SDS011;9239;50.932;3.142;2024-03-17T01:26:57;9.30;;;8.40;;
18228;SDS011;9239;50.932;3.142;2024-03-17T01:29:24;9.60;;;8.07;;
18228;SDS011;9239;50.932;3.142;2024-03-17T01:31:52;8.57;;;7.67;;
18228;SDS011;9239;50.932;3.142;2024-03-17T01:34:19;9.37;;;7.63;;
18228;SDS011;9239;50.932;3.142;2024-03-17T01:36:45;10.40;;;7.77;;
18228;SDS011;9239;50.932;3.142;2024-03-17T01:39:12;8.93;;;8.00;;
18228;SDS011;9239;50.932;3.142;2024-03-17T01:41:38;8.90;;;7.37;;
18228;SDS011;9239;50.932;3.142;2024-03-17T01:44:06;8.90;;;7.43;;
18228;SDS011;9239;50.932;3.142;2024-03-17T01:46:32;9.37;;;8.50;;
18228;SDS011;9239;50.932;3.142;2024-03-17T01:49:01;9.27;;;8.37;;
18228;SDS011;9239;50.932;3.142;2024-03-17T01:51:29;9.07;;;7.90;;
18228;SDS011;9239;50.932;3.142;2024-03-17T01:53:56;9.30;;;8.33;;
18228;SDS011;9239;50.932;3.142;2024-03-17T01:56:23;9.13;;;7.97;;
18228;SDS011;9239;50.932;3.142;2024-03-17T01:58:50;9.57;;;8.23;;
18228;SDS011;9239;50.932;3.142;2024-03-17T02:01:17;10.23;;;8.33;;
18228;SDS011;9239;50.932;3.142;2024-03-17T02:03:44;9.13;;;8.10;;
18228;SDS011;9239;50.932;3.142;2024-03-17T02:06:11;9.93;;;7.80;;
18228;SDS011;9239;50.932;3.142;2024-03-17T02:08:50;8.90;;;7.90;;
18228;SDS011;9239;50.932;3.142;2024-03-17T02:11:27;11.30;;;8.20;;
18228;SDS011;9239;50.932;3.142;2024-03-17T02:13:56;11.07;;;8.37;;
18228;SDS011;9239;50.932;3.142;2024-03-17T02:16:22;9.50;;;8.57;;
18228;SDS011;9239;50.932;3.142;2024-03-17T02:18:50;10.40;;;8.90;;
18228;SDS011;9239;50.932;3.142;2024-03-17T02:21:21;8.70;;;7.73;;
18228;SDS011;9239;50.932;3.142;2024-03-17T02:23:51;11.67;;;8.80;;
18228;SDS011;9239;50.932;3.142;2024-03-17T02:26:17;9.70;;;8.47;;
18228;SDS011;9239;50.932;3.142;2024-03-17T02:28:45;9.13;;;8.30;;
18228;SDS011;9239;50.932;3.142;2024-03-17T02:31:12;9.50;;;8.50;;
18228;SDS011;9239;50.932;3.142;2024-03-17T02:33:41;8.90;;;7.97;;
18228;SDS011;9239;50.932;3.142;2024-03-17T02:36:07;8.97;;;8.07;;
18228;SDS011;9239;50.932;3.142;2024-03-17T02:38:36;10.70;;;8.53;;
18228;SDS011;9239;50.932;3.142;2024-03-17T02:41:23;9.33;;;7.50;;
18228;SDS011;9239;50.932;3.142;2024-03-17T02:43:50;9.40;;;8.40;;
18228;SDS011;9239;50.932;3.142;2024-03-17T02:46:17;11.17;;;8.50;;
18228;SDS011;9239;50.932;3.142;2024-03-17T02:48:47;13.07;;;8.43;;
18228;SDS011;9239;50.932;3.142;2024-03-17T02:51:17;9.60;;;7.77;;
18228;SDS011;9239;50.932;3.142;2024-03-17T02:53:45;10.37;;;8.80;;
18228;SDS011;9239;50.932;3.142;2024-03-17T02:56:14;10.67;;;8.63;;
18228;SDS011;9239;50.932;3.142;2024-03-17T02:58:43;9.80;;;8.80;;
18228;SDS011;9239;50.932;3.142;2024-03-17T03:01:12;9.33;;;8.33;;
18228;SDS011;9239;50.932;3.142;2024-03-17T03:03:40;9.77;;;8.57;;
18228;SDS011;9239;50.932;3.142;2024-03-17T03:06:07;10.30;;;9.13;;
18228;SDS011;9239;50.932;3.142;2024-03-17T03:08:36;10.30;;;8.07;;
18228;SDS011;9239;50.932;3.142;2024-03-17T03:11:05;13.30;;;9.00;;
18228;SDS011;9239;50.932;3.142;2024-03-17T03:13:36;9.10;;;8.23;;
18228;SDS011;9239;50.932;3.142;2024-03-17T03:16:06;10.17;;;9.17;;
18228;SDS011;9239;50.932;3.142;2024-03-17T03:18:33;10.00;;;8.00;;
18228;SDS011;9239;50.932;3.142;2024-03-17T03:21:00;9.37;;;8.37;;
18228;SDS011;9239;50.932;3.142;2024-03-17T03:23:27;9.70;;;8.70;;
18228;SDS011;9239;50.932;3.142;2024-03-17T03:25:54;10.30;;;8.47;;
18228;SDS011;9239;50.932;3.142;2024-03-17T03:28:22;10.00;;;8.47;;
18228;SDS011;9239;50.932;3.142;2024-03-17T03:30:49;10.47;;;8.63;;
18228;SDS011;9239;50.932;3.142;2024-03-17T03:33:18;9.47;;;8.47;;
18228;SDS011;9239;50.932;3.142;2024-03-17T03:35:45;11.10;;;7.30;;
18228;SDS011;9239;50.932;3.142;2024-03-17T03:38:13;11.77;;;8.67;;
18228;SDS011;9239;50.932;3.142;2024-03-17T03:40:40;9.17;;;8.17;;
18228;SDS011;9239;50.932;3.142;2024-03-17T03:43:07;8.33;;;7.43;;
18228;SDS011;9239;50.932;3.142;2024-03-17T03:45:34;9.40;;;8.20;;
18228;SDS011;9239;50.932;3.142;2024-03-17T03:48:01;8.70;;;7.73;;
18228;SDS011;9239;50.932;3.142;2024-03-17T03:50:30;9.37;;;8.47;;
18228;SDS011;9239;50.932;3.142;2024-03-17T03:52:58;9.83;;;8.03;;
18228;SDS011;9239;50.932;3.142;2024-03-17T03:55:25;8.63;;;7.30;;
18228;SDS011;9239;50.932;3.142;2024-03-17T03:57:52;11.93;;;7.70;;
18228;SDS011;9239;50.932;3.142;2024-03-17T04:00:19;9.93;;;8.27;;
18228;SDS011;9239;50.932;3.142;2024-03-17T04:02:47;9.20;;;7.97;;
18228;SDS011;9239;50.932;3.142;2024-03-17T04:05:16;10.60;;;7.90;;
18228;SDS011;9239;50.932;3.142;2024-03-17T04:07:45;9.97;;;7.53;;
18228;SDS011;9239;50.932;3.142;2024-03-17T04:10:14;9.00;;;8.10;;
18228;SDS011;9239;50.932;3.142;2024-03-17T04:12:43;9.10;;;7.43;;
18228;SDS011;9239;50.932;3.142;2024-03-17T04:15:10;8.57;;;7.40;;
18228;SDS011;9239;50.932;3.142;2024-03-17T04:17:39;8.83;;;7.17;;
18228;SDS011;9239;50.932;3.142;2024-03-17T04:20:07;10.50;;;8.30;;
18228;SDS011;9239;50.932;3.142;2024-03-17T04:22:38;10.47;;;8.13;;
18228;SDS011;9239;50.932;3.142;2024-03-17T04:25:07;12.13;;;8.40;;
18228;SDS011;9239;50.932;3.142;2024-03-17T04:27:34;8.50;;;7.70;;
18228;SDS011;9239;50.932;3.142;2024-03-17T04:30:02;9.23;;;7.63;;
18228;SDS011;9239;50.932;3.142;2024-03-17T04:32:31;8.57;;;7.70;;
18228;SDS011;9239;50.932;3.142;2024-03-17T04:34:57;8.80;;;7.90;;
18228;SDS011;9239;50.932;3.142;2024-03-17T04:37:24;8.10;;;7.07;;
18228;SDS011;9239;50.932;3.142;2024-03-17T04:39:51;11.37;;;7.87;;
18228;SDS011;9239;50.932;3.142;2024-03-17T04:42:23;9.13;;;7.67;;
18228;SDS011;9239;50.932;3.142;2024-03-17T04:44:51;9.03;;;8.13;;
18228;SDS011;9239;50.932;3.142;2024-03-17T04:47:18;8.73;;;7.27;;
18228;SDS011;9239;50.932;3.142;2024-03-17T04:49:45;11.17;;;7.00;;
18228;SDS011;9239;50.932;3.142;2024-03-17T04:52:14;8.93;;;7.40;;
18228;SDS011;9239;50.932;3.142;2024-03-17T04:54:41;8.67;;;7.80;;
18228;SDS011;9239;50.932;3.142;2024-03-17T04:57:08;9.30;;;7.03;;
18228;SDS011;9239;50.932;3.142;2024-03-17T04:59:37;11.63;;;7.50;;
18228;SDS011;9239;50.932;3.142;2024-03-17T05:02:04;9.60;;;6.90;;
18228;SDS011;9239;50.932;3.142;2024-03-17T05:04:32;8.47;;;7.10;;
18228;SDS011;9239;50.932;3.142;2024-03-17T05:06:59;10.70;;;7.87;;
18228;SDS011;9239;50.932;3.142;2024-03-17T05:09:26;8.33;;;6.63;;
18228;SDS011;9239;50.932;3.142;2024-03-17T05:11:53;8.53;;;7.63;;
18228;SDS011;9239;50.932;3.142;2024-03-17T05:14:20;7.37;;;6.67;;
18228;SDS011;9239;50.932;3.142;2024-03-17T05:16:49;8.37;;;6.73;;
18228;SDS011;9239;50.932;3.142;2024-03-17T05:19:17;7.53;;;6.43;;
18228;SDS011;9239;50.932;3.142;2024-03-17T05:21:44;8.40;;;6.67;;
18228;SDS011;9239;50.932;3.142;2024-03-17T05:24:11;8.47;;;7.53;;
18228;SDS011;9239;50.932;3.142;2024-03-17T05:26:38;11.93;;;7.33;;
18228;SDS011;9239;50.932;3.142;2024-03-17T05:29:07;7.70;;;6.90;;
18228;SDS011;9239;50.932;3.142;2024-03-17T05:31:34;7.03;;;6.33;;
18228;SDS011;9239;50.932;3.142;2024-03-17T05:34:03;7.40;;;6.50;;
18228;SDS011;9239;50.932;3.142;2024-03-17T05:36:30;7.67;;;6.83;;
18228;SDS011;9239;50.932;3.142;2024-03-17T05:38:58;11.67;;;6.83;;
18228;SDS011;9239;50.932;3.142;2024-03-17T05:41:26;7.53;;;6.30;;
18228;SDS011;9239;50.932;3.142;2024-03-17T05:43:53;8.03;;;6.90;;
18228;SDS011;9239;50.932;3.142;2024-03-17T05:46:23;13.40;;;7.20;;
18228;SDS011;9239;50.932;3.142;2024-03-17T05:48:51;7.37;;;6.33;;
18228;SDS011;9239;50.932;3.142;2024-03-17T05:51:19;9.23;;;6.70;;
18228;SDS011;9239;50.932;3.142;2024-03-17T05:53:46;7.00;;;6.27;;
18228;SDS011;9239;50.932;3.142;2024-03-17T05:56:13;7.67;;;6.43;;
18228;SDS011;9239;50.932;3.142;2024-03-17T05:58:42;7.07;;;6.37;;
18228;SDS011;9239;50.932;3.142;2024-03-17T06:01:09;7.87;;;6.80;;
18228;SDS011;9239;50.932;3.142;2024-03-17T06:03:37;7.90;;;7.10;;
18228;SDS011;9239;50.932;3.142;2024-03-17T06:06:04;7.33;;;6.40;;
18228;SDS011;9239;50.932;3.142;2024-03-17T06:08:36;11.57;;;7.13;;
18228;SDS011;9239;50.932;3.142;2024-03-17T06:11:03;7.40;;;5.67;;
18228;SDS011;9239;50.932;3.142;2024-03-17T06:13:31;7.47;;;6.70;;
18228;SDS011;9239;50.932;3.142;2024-03-17T06:15:58;7.20;;;6.27;;
18228;SDS011;9239;50.932;3.142;2024-03-17T06:18:28;6.87;;;6.27;;
18228;SDS011;9239;50.932;3.142;2024-03-17T06:20:55;7.87;;;6.30;;
18228;SDS011;9239;50.932;3.142;2024-03-17T06:23:24;8.10;;;6.50;;
18228;SDS011;9239;50.932;3.142;2024-03-17T06:25:53;7.67;;;5.53;;
18228;SDS011;9239;50.932;3.142;2024-03-17T06:28:21;11.80;;;6.63;;
18228;SDS011;9239;50.932;3.142;2024-03-17T06:30:55;8.07;;;6.00;;
18228;SDS011;9239;50.932;3.142;2024-03-17T06:33:24;9.07;;;6.23;;
18228;SDS011;9239;50.932;3.142;2024-03-17T06:35:53;8.13;;;6.23;;
18228;SDS011;9239;50.932;3.142;2024-03-17T06:38:20;6.87;;;5.90;;
18228;SDS011;9239;50.932;3.142;2024-03-17T06:40:50;9.70;;;6.77;;
18228;SDS011;9239;50.932;3.142;2024-03-17T06:43:19;7.93;;;6.30;;
18228;SDS011;9239;50.932;3.142;2024-03-17T06:45:56;7.20;;;6.47;;
18228;SDS011;9239;50.932;3.142;2024-03-17T06:48:23;6.57;;;5.97;;
18228;SDS011;9239;50.932;3.142;2024-03-17T06:50:51;7.80;;;7.00;;
18228;SDS011;9239;50.932;3.142;2024-03-17T06:53:19;9.10;;;6.97;;
18228;SDS011;9239;50.932;3.142;2024-03-17T06:55:56;7.17;;;6.47;;
18228;SDS011;9239;50.932;3.142;2024-03-17T06:58:25;9.77;;;6.43;;
18228;SDS011;9239;50.932;3.142;2024-03-17T07:00:55;9.60;;;5.97;;
18228;SDS011;9239;50.932;3.142;2024-03-17T07:03:23;8.10;;;7.30;;
18228;SDS011;9239;50.932;3.142;2024-03-17T07:05:51;9.70;;;7.17;;
18228;SDS011;9239;50.932;3.142;2024-03-17T07:08:19;10.33;;;7.33;;
18228;SDS011;9239;50.932;3.142;2024-03-17T07:10:59;6.67;;;5.97;;
18228;SDS011;9239;50.932;3.142;2024-03-17T07:13:30;7.90;;;7.03;;
18228;SDS011;9239;50.932;3.142;2024-03-17T07:15:58;8.37;;;7.33;;
18228;SDS011;9239;50.932;3.142;2024-03-17T07:18:25;8.93;;;7.90;;
18228;SDS011;9239;50.932;3.142;2024-03-17T07:20:53;9.77;;;7.00;;
18228;SDS011;9239;50.932;3.142;2024-03-17T07:23:23;10.10;;;7.13;;
18228;SDS011;9239;50.932;3.142;2024-03-17T07:25:54;8.70;;;6.73;;
18228;SDS011;9239;50.932;3.142;2024-03-17T07:28:21;8.03;;;7.23;;
18228;SDS011;9239;50.932;3.142;2024-03-17T07:30:50;7.47;;;6.43;;
18228;SDS011;9239;50.932;3.142;2024-03-17T07:33:18;9.10;;;6.43;;
18228;SDS011;9239;50.932;3.142;2024-03-17T07:35:47;9.20;;;7.27;;
18228;SDS011;9239;50.932;3.142;2024-03-17T07:38:14;7.80;;;6.63;;
18228;SDS011;9239;50.932;3.142;2024-03-17T07:40:42;8.00;;;6.90;;
18228;SDS011;9239;50.932;3.142;2024-03-17T07:43:09;8.00;;;7.00;;
18228;SDS011;9239;50.932;3.142;2024-03-17T07:45:36;9.63;;;7.13;;
18228;SDS011;9239;50.932;3.142;2024-03-17T07:48:05;8.67;;;7.63;;
18228;SDS011;9239;50.932;3.142;2024-03-17T07:50:33;9.87;;;7.33;;
18228;SDS011;9239;50.932;3.142;2024-03-17T07:53:00;10.13;;;7.47;;
18228;SDS011;9239;50.932;3.142;2024-03-17T07:55:28;11.83;;;7.67;;
18228;SDS011;9239;50.932;3.142;2024-03-17T07:57:56;9.43;;;6.50;;
18228;SDS011;9239;50.932;3.142;2024-03-17T08:00:23;12.03;;;7.47;;
18228;SDS011;9239;50.932;3.142;2024-03-17T08:02:50;12.27;;;8.03;;
18228;SDS011;9239;50.932;3.142;2024-03-17T08:05:19;11.47;;;7.03;;
18228;SDS011;9239;50.932;3.142;2024-03-17T08:07:47;9.53;;;7.73;;
18228;SDS011;9239;50.932;3.142;2024-03-17T08:10:14;11.97;;;7.40;;
18228;SDS011;9239;50.932;3.142;2024-03-17T08:12:42;12.07;;;7.33;;
18228;SDS011;9239;50.932;3.142;2024-03-17T08:15:10;10.43;;;7.87;;
18228;SDS011;9239;50.932;3.142;2024-03-17T08:17:36;9.60;;;7.80;;
18228;SDS011;9239;50.932;3.142;2024-03-17T08:20:03;12.30;;;8.67;;
18228;SDS011;9239;50.932;3.142;2024-03-17T08:22:33;13.40;;;9.83;;
18228;SDS011;9239;50.932;3.142;2024-03-17T08:25:00;11.10;;;9.57;;
18228;SDS011;9239;50.932;3.142;2024-03-17T08:27:26;11.17;;;7.77;;
18228;SDS011;9239;50.932;3.142;2024-03-17T08:29:53;11.83;;;9.53;;
18228;SDS011;9239;50.932;3.142;2024-03-17T08:32:20;10.23;;;7.73;;
18228;SDS011;9239;50.932;3.142;2024-03-17T08:34:47;10.33;;;7.50;;
18228;SDS011;9239;50.932;3.142;2024-03-17T08:37:15;10.47;;;8.17;;
18228;SDS011;9239;50.932;3.142;2024-03-17T08:39:43;12.17;;;9.03;;
18228;SDS011;9239;50.932;3.142;2024-03-17T08:42:10;12.23;;;8.13;;
18228;SDS011;9239;50.932;3.142;2024-03-17T08:44:37;11.10;;;8.90;;
18228;SDS011;9239;50.932;3.142;2024-03-17T08:47:04;11.37;;;7.93;;
18228;SDS011;9239;50.932;3.142;2024-03-17T08:49:31;13.23;;;9.23;;
18228;SDS011;9239;50.932;3.142;2024-03-17T08:51:58;8.63;;;7.73;;
18228;SDS011;9239;50.932;3.142;2024-03-17T08:54:25;12.37;;;9.80;;
18228;SDS011;9239;50.932;3.142;2024-03-17T08:56:53;10.30;;;8.93;;
18228;SDS011;9239;50.932;3.142;2024-03-17T08:59:20;10.07;;;8.57;;
18228;SDS011;9239;50.932;3.142;2024-03-17T09:01:47;10.63;;;8.33;;
18228;SDS011;9239;50.932;3.142;2024-03-17T09:04:14;12.17;;;8.73;;
18228;SDS011;9239;50.932;3.142;2024-03-17T09:06:41;12.07;;;9.90;;
18228;SDS011;9239;50.932;3.142;2024-03-17T09:09:08;10.77;;;9.30;;
18228;SDS011;9239;50.932;3.142;2024-03-17T09:11:35;14.40;;;8.60;;
18228;SDS011;9239;50.932;3.142;2024-03-17T09:14:03;11.10;;;9.07;;
18228;SDS011;9239;50.932;3.142;2024-03-17T09:16:31;12.07;;;9.20;;
18228;SDS011;9239;50.932;3.142;2024-03-17T09:18:58;10.43;;;8.77;;
18228;SDS011;9239;50.932;3.142;2024-03-17T09:21:25;11.90;;;8.67;;
18228;SDS011;9239;50.932;3.142;2024-03-17T09:23:52;15.20;;;12.43;;
18228;SDS011;9239;50.932;3.142;2024-03-17T09:26:19;11.97;;;9.17;;
18228;SDS011;9239;50.932;3.142;2024-03-17T09:28:46;10.77;;;9.03;;
18228;SDS011;9239;50.932;3.142;2024-03-17T09:31:14;16.30;;;8.90;;
18228;SDS011;9239;50.932;3.142;2024-03-17T09:33:41;11.67;;;8.50;;
18228;SDS011;9239;50.932;3.142;2024-03-17T09:36:09;11.10;;;8.40;;
18228;SDS011;9239;50.932;3.142;2024-03-17T09:38:38;9.83;;;8.17;;
18228;SDS011;9239;50.932;3.142;2024-03-17T09:41:05;9.90;;;8.00;;
18228;SDS011;9239;50.932;3.142;2024-03-17T09:43:33;10.17;;;9.07;;
18228;SDS011;9239;50.932;3.142;2024-03-17T09:46:02;10.97;;;8.27;;
18228;SDS011;9239;50.932;3.142;2024-03-17T09:48:31;10.43;;;8.07;;
18228;SDS011;9239;50.932;3.142;2024-03-17T09:50:58;12.33;;;9.83;;
18228;SDS011;9239;50.932;3.142;2024-03-17T09:53:27;9.73;;;7.67;;
18228;SDS011;9239;50.932;3.142;2024-03-17T09:55:57;8.90;;;8.00;;
18228;SDS011;9239;50.932;3.142;2024-03-17T09:58:25;10.87;;;9.33;;
18228;SDS011;9239;50.932;3.142;2024-03-17T10:00:52;10.27;;;8.57;;
18228;SDS011;9239;50.932;3.142;2024-03-17T10:06:11;9.17;;;7.80;;
18228;SDS011;9239;50.932;3.142;2024-03-17T10:08:42;9.97;;;8.10;;
18228;SDS011;9239;50.932;3.142;2024-03-17T10:11:10;8.93;;;7.50;;
18228;SDS011;9239;50.932;3.142;2024-03-17T10:13:38;11.07;;;8.50;;
18228;SDS011;9239;50.932;3.142;2024-03-17T10:16:05;9.37;;;8.23;;
18228;SDS011;9239;50.932;3.142;2024-03-17T10:18:32;8.83;;;7.20;;
18228;SDS011;9239;50.932;3.142;2024-03-17T10:21:01;9.37;;;7.17;;
18228;SDS011;9239;50.932;3.142;2024-03-17T10:23:28;12.77;;;7.87;;
18228;SDS011;9239;50.932;3.142;2024-03-17T10:25:55;12.03;;;8.53;;
18228;SDS011;9239;50.932;3.142;2024-03-17T10:28:22;8.23;;;7.30;;
18228;SDS011;9239;50.932;3.142;2024-03-17T10:30:58;8.73;;;7.47;;
18228;SDS011;9239;50.932;3.142;2024-03-17T10:33:26;9.97;;;7.63;;
18228;SDS011;9239;50.932;3.142;2024-03-17T10:36:01;14.33;;;7.70;;
18228;SDS011;9239;50.932;3.142;2024-03-17T10:38:30;11.63;;;7.40;;
18228;SDS011;9239;50.932;3.142;2024-03-17T10:40:59;7.37;;;5.77;;
18228;SDS011;9239;50.932;3.142;2024-03-17T10:43:27;9.27;;;6.83;;
18228;SDS011;9239;50.932;3.142;2024-03-17T10:45:56;9.23;;;7.03;;
18228;SDS011;9239;50.932;3.142;2024-03-17T10:48:26;10.13;;;6.63;;
18228;SDS011;9239;50.932;3.142;2024-03-17T10:50:58;8.13;;;6.23;;
18228;SDS011;9239;50.932;3.142;2024-03-17T10:53:27;8.68;;;6.05;;
18228;SDS011;9239;50.932;3.142;2024-03-17T10:56:01;9.98;;;5.97;;
18228;SDS011;9239;50.932;3.142;2024-03-17T10:58:34;9.77;;;8.85;;
18228;SDS011;9239;50.932;3.142;2024-03-17T11:01:02;8.88;;;6.47;;
18228;SDS011;9239;50.932;3.142;2024-03-17T11:03:31;10.05;;;7.38;;
18228;SDS011;9239;50.932;3.142;2024-03-17T11:06:02;6.93;;;6.22;;
18228;SDS011;9239;50.932;3.142;2024-03-17T11:08:31;8.18;;;5.97;;
18228;SDS011;9239;50.932;3.142;2024-03-17T11:10:59;8.20;;;5.88;;
18228;SDS011;9239;50.932;3.142;2024-03-17T11:13:27;9.10;;;5.63;;
18228;SDS011;9239;50.932;3.142;2024-03-17T11:15:54;5.85;;;5.28;;
18228;SDS011;9239;50.932;3.142;2024-03-17T11:18:36;7.95;;;5.88;;
18228;SDS011;9239;50.932;3.142;2024-03-17T11:21:17;7.88;;;5.47;;
18228;SDS011;9239;50.932;3.142;2024-03-17T11:23:56;8.55;;;4.55;;
18228;SDS011;9239;50.932;3.142;2024-03-17T11:26:31;10.07;;;5.07;;
18228;SDS011;9239;50.932;3.142;2024-03-17T11:29:00;11.40;;;5.07;;
18228;SDS011;9239;50.932;3.142;2024-03-17T11:31:42;8.13;;;4.18;;
18228;SDS011;9239;50.932;3.142;2024-03-17T11:34:28;6.85;;;4.68;;
18228;SDS011;9239;50.932;3.142;2024-03-17T11:36:58;5.03;;;4.60;;
18228;SDS011;9239;50.932;3.142;2024-03-17T11:42:21;7.18;;;4.22;;
18228;SDS011;9239;50.932;3.142;2024-03-17T11:44:55;8.15;;;4.35;;
18228;SDS011;9239;50.932;3.142;2024-03-17T11:47:32;8.63;;;4.30;;
18228;SDS011;9239;50.932;3.142;2024-03-17T11:50:03;5.55;;;3.95;;
18228;SDS011;9239;50.932;3.142;2024-03-17T11:52:34;9.45;;;4.10;;
18228;SDS011;9239;50.932;3.142;2024-03-17T11:55:00;6.55;;;3.90;;
18228;SDS011;9239;50.932;3.142;2024-03-17T11:57:27;5.75;;;3.50;;
18228;SDS011;9239;50.932;3.142;2024-03-17T11:59:53;7.63;;;3.95;;
18228;SDS011;9239;50.932;3.142;2024-03-17T12:02:23;3.95;;;3.08;;
18228;SDS011;9239;50.932;3.142;2024-03-17T12:04:51;4.05;;;3.38;;
18228;SDS011;9239;50.932;3.142;2024-03-17T12:07:19;6.03;;;4.05;;
18228;SDS011;9239;50.932;3.142;2024-03-17T12:09:50;8.20;;;3.83;;
18228;SDS011;9239;50.932;3.142;2024-03-17T12:12:19;5.95;;;3.65;;
18228;SDS011;9239;50.932;3.142;2024-03-17T12:14:46;6.53;;;3.50;;
18228;SDS011;9239;50.932;3.142;2024-03-17T12:17:15;5.30;;;3.25;;
18228;SDS011;9239;50.932;3.142;2024-03-17T12:19:46;8.00;;;3.53;;
18228;SDS011;9239;50.932;3.142;2024-03-17T12:22:15;6.25;;;3.28;;
18228;SDS011;9239;50.932;3.142;2024-03-17T12:24:44;4.60;;;3.03;;
18228;SDS011;9239;50.932;3.142;2024-03-17T12:27:15;3.75;;;3.38;;
18228;SDS011;9239;50.932;3.142;2024-03-17T12:29:43;6.10;;;3.08;;
18228;SDS011;9239;50.932;3.142;2024-03-17T12:32:11;4.85;;;3.05;;
18228;SDS011;9239;50.932;3.142;2024-03-17T12:34:39;5.25;;;4.18;;
18228;SDS011;9239;50.932;3.142;2024-03-17T12:37:07;7.32;;;4.75;;
18228;SDS011;9239;50.932;3.142;2024-03-17T12:39:37;9.23;;;4.07;;
18228;SDS011;9239;50.932;3.142;2024-03-17T12:42:09;7.60;;;3.92;;
18228;SDS011;9239;50.932;3.142;2024-03-17T12:44:37;6.82;;;4.03;;
18228;SDS011;9239;50.932;3.142;2024-03-17T12:47:07;7.50;;;3.95;;
18228;SDS011;9239;50.932;3.142;2024-03-17T12:49:43;8.00;;;4.75;;
18228;SDS011;9239;50.932;3.142;2024-03-17T12:52:16;8.90;;;5.15;;
18228;SDS011;9239;50.932;3.142;2024-03-17T12:54:43;7.07;;;5.15;;
18228;SDS011;9239;50.932;3.142;2024-03-17T12:57:17;10.13;;;5.30;;
18228;SDS011;9239;50.932;3.142;2024-03-17T13:00:17;10.15;;;5.55;;
18228;SDS011;9239;50.932;3.142;2024-03-17T13:02:58;7.53;;;4.85;;
18228;SDS011;9239;50.932;3.142;2024-03-17T13:05:26;11.55;;;6.05;;
18228;SDS011;9239;50.932;3.142;2024-03-17T13:07:53;7.90;;;5.07;;
18228;SDS011;9239;50.932;3.142;2024-03-17T13:10:22;7.30;;;4.60;;
18228;SDS011;9239;50.932;3.142;2024-03-17T13:12:57;6.07;;;4.40;;
18228;SDS011;9239;50.932;3.142;2024-03-17T13:15:27;5.75;;;4.25;;
18228;SDS011;9239;50.932;3.142;2024-03-17T13:17:56;5.82;;;4.13;;
18228;SDS011;9239;50.932;3.142;2024-03-17T13:20:23;5.90;;;4.38;;
18228;SDS011;9239;50.932;3.142;2024-03-17T13:22:51;6.93;;;3.95;;
18228;SDS011;9239;50.932;3.142;2024-03-17T13:25:18;7.50;;;3.63;;
18228;SDS011;9239;50.932;3.142;2024-03-17T13:27:49;5.07;;;4.28;;
18228;SDS011;9239;50.932;3.142;2024-03-17T13:30:17;5.00;;;4.07;;
18228;SDS011;9239;50.932;3.142;2024-03-17T13:32:49;4.65;;;4.00;;
18228;SDS011;9239;50.932;3.142;2024-03-17T13:35:21;4.82;;;3.40;;
18228;SDS011;9239;50.932;3.142;2024-03-17T13:37:50;3.97;;;3.33;;
18228;SDS011;9239;50.932;3.142;2024-03-17T13:40:18;4.72;;;3.58;;
18228;SDS011;9239;50.932;3.142;2024-03-17T13:42:46;7.32;;;4.50;;
18228;SDS011;9239;50.932;3.142;2024-03-17T13:45:14;6.60;;;3.70;;
18228;SDS011;9239;50.932;3.142;2024-03-17T13:47:41;5.53;;;3.80;;
18228;SDS011;9239;50.932;3.142;2024-03-17T13:50:13;6.20;;;4.50;;
18228;SDS011;9239;50.932;3.142;2024-03-17T13:52:41;6.82;;;4.00;;
18228;SDS011;9239;50.932;3.142;2024-03-17T13:55:08;4.78;;;4.25;;
18228;SDS011;9239;50.932;3.142;2024-03-17T13:57:40;6.55;;;3.60;;
18228;SDS011;9239;50.932;3.142;2024-03-17T14:00:10;7.10;;;4.50;;
18228;SDS011;9239;50.932;3.142;2024-03-17T14:02:41;5.35;;;3.45;;
18228;SDS011;9239;50.932;3.142;2024-03-17T14:05:09;3.65;;;3.17;;
18228;SDS011;9239;50.932;3.142;2024-03-17T14:07:40;5.72;;;3.30;;
18228;SDS011;9239;50.932;3.142;2024-03-17T14:10:08;3.28;;;2.60;;
18228;SDS011;9239;50.932;3.142;2024-03-17T14:12:36;4.28;;;3.50;;
18228;SDS011;9239;50.932;3.142;2024-03-17T14:15:04;3.65;;;3.33;;
18228;SDS011;9239;50.932;3.142;2024-03-17T14:17:32;3.78;;;3.47;;
18228;SDS011;9239;50.932;3.142;2024-03-17T14:20:00;5.55;;;4.00;;
18228;SDS011;9239;50.932;3.142;2024-03-17T14:22:29;5.47;;;3.95;;
18228;SDS011;9239;50.932;3.142;2024-03-17T14:24:57;5.45;;;4.38;;
18228;SDS011;9239;50.932;3.142;2024-03-17T14:27:24;4.38;;;3.50;;
18228;SDS011;9239;50.932;3.142;2024-03-17T14:29:52;3.95;;;3.58;;
18228;SDS011;9239;50.932;3.142;2024-03-17T14:32:19;8.48;;;4.38;;
18228;SDS011;9239;50.932;3.142;2024-03-17T14:34:47;7.55;;;4.38;;
18228;SDS011;9239;50.932;3.142;2024-03-17T14:37:14;5.93;;;5.43;;
18228;SDS011;9239;50.932;3.142;2024-03-17T14:39:42;5.72;;;3.92;;
18228;SDS011;9239;50.932;3.142;2024-03-17T14:42:10;5.85;;;4.93;;
18228;SDS011;9239;50.932;3.142;2024-03-17T14:44:37;6.85;;;4.80;;
18228;SDS011;9239;50.932;3.142;2024-03-17T14:47:04;5.25;;;4.15;;
18228;SDS011;9239;50.932;3.142;2024-03-17T14:49:32;7.57;;;4.50;;
18228;SDS011;9239;50.932;3.142;2024-03-17T14:51:59;4.43;;;4.03;;
18228;SDS011;9239;50.932;3.142;2024-03-17T14:54:26;5.60;;;3.78;;
18228;SDS011;9239;50.932;3.142;2024-03-17T14:56:55;4.38;;;3.97;;
18228;SDS011;9239;50.932;3.142;2024-03-17T14:59:22;8.50;;;4.30;;
18228;SDS011;9239;50.932;3.142;2024-03-17T15:01:49;5.32;;;4.20;;
18228;SDS011;9239;50.932;3.142;2024-03-17T15:04:16;4.82;;;4.43;;
18228;SDS011;9239;50.932;3.142;2024-03-17T15:06:44;6.00;;;4.70;;
18228;SDS011;9239;50.932;3.142;2024-03-17T15:09:11;6.53;;;5.00;;
18228;SDS011;9239;50.932;3.142;2024-03-17T15:11:38;5.38;;;4.63;;